Schofer, Pennsylvania
Current Conditions -  °F | °C
As of 11:54 AM on Saturday 20 Dec 2014 (Local Time) from KRDG Reporting Station
Overcast Overcast  
Wind Chill: 29°   Ceiling: 2900
Heat Index: 33°   Visibility: 10mi
Dew Point: 20°   Wind: 5mph
Humidity: 59%   Direction: 30°NNE
Pressure: 30.26"   Gusts: NA
Location:  40.5336°N, 75.7775°W
Report Text: KRDG 201654Z AUTO 03004KT 10SM OVC029 01/M07 A3026 RMK AO2 SLP255 T00061067
Loading
Personal Weather Stations






























Interactive Weather Map New forecast layout! Learn more

10-Day Weather Forecast

Advertisements
Track Severe Weather on mobile